This is the latest recevied weather packets stored in our database for station/object AF9W-5. If no packets are shown the sender has not sent any weather packets the latest 10 day(s).
| Time | Temp. | Humidity | Pressure | Rain* | Wind** | Luminosity | Snow |
|---|---|---|---|---|---|---|---|
| 1776974908 | 25° C | 20% | 1012.6 hPa | 0 mm | - | 944 W/m² | - |
| 1776974606 | 25.56° C | 19% | 1012.9 hPa | 0 mm | - | 890 W/m² | - |
| 1776974303 | 24.44° C | 20% | 1013 hPa | 0 mm | - | 821 W/m² | - |
| 1776974000 | 24.44° C | 21% | 1013.1 hPa | 0 mm | - | 620 W/m² | - |
| 1776971882 | 26.11° C | 19% | 1013.3 hPa | 0 mm | - | 855 W/m² | - |
| 1776971580 | 26.11° C | 19% | 1013.2 hPa | 0 mm | - | 855 W/m² | - |
| 1776970369 | 25.56° C | 21% | 1013.5 hPa | 0 mm | - | 852 W/m² | - |
| 1776967636 | 25° C | 22% | 1014.1 hPa | 0 mm | - | 779 W/m² | - |
| 1776967330 | 25° C | 22% | 1014 hPa | 0 mm | - | 779 W/m² | - |
| 1776967024 | 24.44° C | 22% | 1013.9 hPa | 0 mm | - | 801 W/m² | - |
| 1776966720 | 24.44° C | 22% | 1013.7 hPa | 0 mm | - | 801 W/m² | - |
| 1776966416 | 23.89° C | 22% | 1014.3 hPa | 0 mm | - | 754 W/m² | - |
| 1776966111 | 23.89° C | 22% | 1013.9 hPa | 0 mm | - | 754 W/m² | - |
| 1776965807 | 23.89° C | 22% | 1013.9 hPa | 0 mm | - | 770 W/m² | - |
| 1776964905 | 23.33° C | 23% | 1013.9 hPa | 0 mm | - | 732 W/m² | - |
| 1776964604 | 23.33° C | 23% | 1014 hPa | 0 mm | - | 732 W/m² | - |
| 1776964299 | 22.22° C | 24% | 1014 hPa | 0 mm | - | 721 W/m² | - |
| 1776963994 | 22.78° C | 23% | 1013.7 hPa | 0 mm | - | 696 W/m² | - |
| 1776963693 | 22.78° C | 23% | 1014.1 hPa | 0 mm | - | 679 W/m² | - |
| 1776963389 | 22.78° C | 23% | 1014.1 hPa | 0 mm | - | 682 W/m² | - |
| 1776963087 | 22.22° C | 23% | 1014 hPa | 0 mm | - | 662 W/m² | - |
| 1776962782 | 22.78° C | 23% | 1014.2 hPa | 0 mm | - | 656 W/m² | - |
| 1776962482 | 22.22° C | 24% | 1014.1 hPa | 0 mm | - | 645 W/m² | - |
| 1776962181 | 22.22° C | 23% | 1014.3 hPa | 0 mm | - | 627 W/m² | - |
| 1776961882 | 21.67° C | 24% | 1014.2 hPa | 0 mm | - | 624 W/m² | - |
* Rain latest hour (hover to see other rain measurements)
** Current wind speed in m/s (hover to see current wind gust speed)